createdAt,value
2019-04-07T00:02:13.029Z,69.36
2019-04-07T00:04:39.046Z,71.51
2019-04-07T00:07:06.042Z,71.30
2019-04-07T00:09:32.107Z,70.10
2019-04-07T00:11:59.083Z,69.52
2019-04-07T00:14:25.249Z,69.65
2019-04-07T00:16:51.793Z,69.57
2019-04-07T00:19:18.244Z,69.82
2019-04-07T00:21:44.344Z,69.70
2019-04-07T00:24:10.450Z,69.75
2019-04-07T00:26:36.509Z,71.12
2019-04-07T00:29:03.199Z,72.23
2019-04-07T00:31:29.370Z,72.02
2019-04-07T00:33:55.400Z,72.32
2019-04-07T00:36:21.916Z,73.06
2019-04-07T00:38:48.273Z,72.46
2019-04-07T00:41:14.887Z,72.24
2019-04-07T00:43:40.883Z,72.37
2019-04-07T00:46:07.670Z,72.40
2019-04-07T00:48:33.766Z,72.63
2019-04-07T00:51:00.261Z,71.69
2019-04-07T00:53:26.415Z,72.08
2019-04-07T00:55:52.930Z,72.51
2019-04-07T00:58:19.181Z,72.08
2019-04-07T01:00:45.247Z,71.81
2019-04-07T01:03:11.545Z,72.09
2019-04-07T01:05:40.536Z,71.92
2019-04-07T01:08:06.438Z,72.53
2019-04-07T01:10:32.745Z,73.49
2019-04-07T01:12:58.977Z,73.03
2019-04-07T01:15:25.285Z,72.75
2019-04-07T01:17:51.319Z,73.53
2019-04-07T01:20:17.433Z,73.53
2019-04-07T01:22:43.600Z,73.27
2019-04-07T01:25:10.466Z,72.92
2019-04-07T01:27:36.532Z,72.98
2019-04-07T01:30:04.742Z,72.97
2019-04-07T01:32:31.364Z,73.37
2019-04-07T01:34:58.077Z,73.40
2019-04-07T01:37:24.223Z,73.01
2019-04-07T01:39:50.196Z,73.35
2019-04-07T01:42:18.149Z,73.44
2019-04-07T01:44:46.122Z,73.46
2019-04-07T01:47:23.199Z,73.66
2019-04-07T01:49:51.161Z,73.40
2019-04-07T01:52:21.732Z,73.72
2019-04-07T01:54:49.603Z,74.65
2019-04-07T01:57:30.089Z,74.48
2019-04-07T02:00:14.451Z,74.73
2019-04-07T02:02:48.722Z,74.84
2019-04-07T02:05:17.319Z,74.57
2019-04-07T02:07:51.275Z,74.97
2019-04-07T02:10:25.400Z,74.45
2019-04-07T02:12:59.339Z,74.76
2019-04-07T02:15:35.996Z,74.72
2019-04-07T02:18:04.021Z,74.78
2019-04-07T02:20:46.565Z,75.07
2019-04-07T02:23:15.335Z,75.03
2019-04-07T02:25:43.878Z,74.41
2019-04-07T02:28:14.340Z,75.77
2019-04-07T02:31:00.651Z,75.48
2019-04-07T02:33:28.841Z,75.92
2019-04-07T02:36:15.769Z,75.70
2019-04-07T02:38:40.883Z,75.91
2019-04-07T02:41:20.651Z,75.66
2019-04-07T02:43:54.171Z,75.45
2019-04-07T02:46:37.007Z,75.99
2019-04-07T02:49:08.234Z,75.91
2019-04-07T02:51:38.724Z,75.85
2019-04-07T02:54:12.172Z,76.06
2019-04-07T02:56:40.907Z,76.39
2019-04-07T02:59:12.046Z,75.94
2019-04-07T03:01:52.811Z,76.06
2019-04-07T03:04:38.394Z,76.21
2019-04-07T03:07:06.873Z,76.41
2019-04-07T03:09:51.670Z,76.29
2019-04-07T03:12:37.226Z,76.41
2019-04-07T03:15:09.301Z,76.29
2019-04-07T03:17:39.994Z,76.26
2019-04-07T03:20:13.946Z,76.90
2019-04-07T03:22:58.840Z,77.58
2019-04-07T03:25:38.719Z,77.83
2019-04-07T03:28:19.765Z,76.91
2019-04-07T03:30:49.540Z,76.81
2019-04-07T03:33:37.942Z,77.07
2019-04-07T03:36:23.265Z,77.29
2019-04-07T03:38:50.330Z,76.83
2019-04-07T03:41:18.645Z,76.71
2019-04-07T03:43:53.056Z,77.45
2019-04-07T03:46:21.614Z,77.10
2019-04-07T03:48:53.645Z,77.76
2019-04-07T03:51:22.420Z,77.61
2019-04-07T03:53:50.547Z,77.12
2019-04-07T03:56:21.875Z,76.36
2019-04-07T03:58:58.516Z,76.50
2019-04-07T04:01:29.923Z,76.73
2019-04-07T04:04:10.090Z,77.49
2019-04-07T04:06:49.843Z,77.28
2019-04-07T04:09:39.112Z,77.28
2019-04-07T04:12:15.024Z,76.97
2019-04-07T04:14:59.862Z,77.01
2019-04-07T04:17:25.928Z,77.81
2019-04-07T04:19:52.033Z,77.80
2019-04-07T04:22:18.682Z,78.42
2019-04-07T04:24:45.070Z,77.96
2019-04-07T04:27:11.036Z,78.00
2019-04-07T04:29:37.411Z,78.15
2019-04-07T04:32:03.488Z,78.35
2019-04-07T04:34:29.590Z,79.03
2019-04-07T04:36:56.365Z,79.27
2019-04-07T04:39:22.919Z,79.22
2019-04-07T04:41:49.257Z,79.58
2019-04-07T04:44:16.407Z,79.54
2019-04-07T04:46:42.658Z,79.22
2019-04-07T04:49:08.796Z,78.97
2019-04-07T04:51:38.868Z,78.77
2019-04-07T04:54:03.792Z,78.74
2019-04-07T04:56:30.742Z,78.35
2019-04-07T04:58:57.031Z,78.29
2019-04-07T05:01:23.077Z,78.27
2019-04-07T05:03:49.424Z,78.22
2019-04-07T05:06:15.685Z,78.25
2019-04-07T05:08:41.662Z,78.22
2019-04-07T05:11:07.893Z,78.18
2019-04-07T05:13:34.167Z,78.62
2019-04-07T05:16:00.549Z,78.32
2019-04-07T05:18:26.841Z,78.24
2019-04-07T05:20:53.168Z,78.16
2019-04-07T05:23:19.621Z,78.42
2019-04-07T05:25:45.748Z,78.42
2019-04-07T05:28:12.375Z,78.43
2019-04-07T05:30:39.161Z,78.45
2019-04-07T05:33:05.598Z,78.27
2019-04-07T05:35:34.171Z,78.38
2019-04-07T05:38:04.554Z,78.16
2019-04-07T05:40:29.402Z,77.88
2019-04-07T05:42:55.566Z,77.61
2019-04-07T05:45:21.607Z,77.14
2019-04-07T05:47:50.259Z,76.87
2019-04-07T05:50:15.529Z,76.82
2019-04-07T05:52:42.072Z,76.82
2019-04-07T05:55:08.942Z,76.64
2019-04-07T05:57:35.972Z,76.55
2019-04-07T06:00:04.232Z,76.31
2019-04-07T06:02:33.482Z,75.46
2019-04-07T06:05:00.058Z,74.80
2019-04-07T06:07:30.261Z,74.04
2019-04-07T06:09:54.480Z,73.15
2019-04-07T06:12:20.558Z,72.13
2019-04-07T06:14:47.670Z,72.88
2019-04-07T06:17:13.790Z,71.85
2019-04-07T06:19:41.197Z,70.84
2019-04-07T06:22:08.567Z,70.00
2019-04-07T06:24:35.113Z,70.16
2019-04-07T06:27:01.308Z,70.76
2019-04-07T06:29:27.967Z,69.65
2019-04-07T06:31:54.925Z,69.66
2019-04-07T06:34:21.592Z,69.49
2019-04-07T06:36:51.533Z,68.92
2019-04-07T06:39:18.183Z,68.71
2019-04-07T06:41:44.245Z,68.01
2019-04-07T06:44:13.755Z,67.60
2019-04-07T06:46:58.555Z,67.25
2019-04-07T06:49:27.839Z,66.32
2019-04-07T06:52:12.112Z,64.70
2019-04-07T06:54:58.921Z,64.52
2019-04-07T06:57:28.220Z,62.75
2019-04-07T06:59:58.909Z,62.20
2019-04-07T07:02:35.846Z,65.12
2019-04-07T07:05:21.333Z,62.79
2019-04-07T07:07:55.252Z,61.57
2019-04-07T07:10:28.976Z,60.80
2019-04-07T07:13:07.494Z,58.96
2019-04-07T07:15:34.569Z,58.50
2019-04-07T07:18:21.320Z,57.52
2019-04-07T07:21:05.029Z,58.22
2019-04-07T07:23:33.217Z,57.39
2019-04-07T07:26:02.849Z,57.06
2019-04-07T07:28:27.371Z,56.10
2019-04-07T07:30:54.615Z,55.19
2019-04-07T07:33:21.350Z,54.41
2019-04-07T07:35:49.238Z,54.47
2019-04-07T07:38:15.414Z,53.08
2019-04-07T07:40:41.887Z,53.02
2019-04-07T07:43:09.787Z,52.21
2019-04-07T07:45:36.190Z,53.51
2019-04-07T07:48:03.087Z,52.19
2019-04-07T07:50:29.914Z,51.62
2019-04-07T07:52:56.195Z,51.64
2019-04-07T07:55:22.342Z,50.28
2019-04-07T07:57:49.111Z,50.57
2019-04-07T08:00:15.650Z,50.32
2019-04-07T08:02:41.751Z,49.02
2019-04-07T08:05:08.094Z,48.45
2019-04-07T08:07:34.775Z,47.05
2019-04-07T08:10:01.485Z,47.16
2019-04-07T08:12:28.143Z,48.36
2019-04-07T08:14:57.280Z,47.67
2019-04-07T08:17:22.596Z,48.16
2019-04-07T08:19:48.696Z,47.71
2019-04-07T08:22:26.518Z,46.20
2019-04-07T08:24:42.760Z,45.78
2019-04-07T08:27:08.889Z,44.95
2019-04-07T08:29:37.103Z,44.52
2019-04-07T08:32:03.306Z,44.98
2019-04-07T08:34:31.544Z,45.20
2019-04-07T08:36:57.452Z,45.00
2019-04-07T08:39:26.721Z,44.01
2019-04-07T08:41:51.816Z,43.56
2019-04-07T08:44:18.057Z,41.49
2019-04-07T08:46:44.433Z,42.35
2019-04-07T08:49:12.769Z,42.92
2019-04-07T08:51:39.428Z,43.11
2019-04-07T08:54:05.899Z,42.19
2019-04-07T08:56:32.871Z,41.54
2019-04-07T08:58:59.202Z,40.27
2019-04-07T09:01:28.689Z,39.35
2019-04-07T09:03:55.100Z,39.35
2019-04-07T09:06:21.527Z,38.22
2019-04-07T09:08:47.722Z,36.03
2019-04-07T09:11:15.910Z,35.44
2019-04-07T09:13:44.142Z,38.40
2019-04-07T09:16:24.660Z,38.61
2019-04-07T09:19:00.498Z,38.44
2019-04-07T09:21:34.234Z,34.99
2019-04-07T09:23:57.956Z,34.23
2019-04-07T09:26:32.086Z,33.90
2019-04-07T09:29:02.592Z,35.39
2019-04-07T09:31:46.619Z,34.20
2019-04-07T09:34:23.334Z,33.52
2019-04-07T09:36:51.402Z,33.69
2019-04-07T09:39:24.973Z,32.15
2019-04-07T09:45:22.771Z,34.85
2019-04-07T09:48:02.381Z,34.69
2019-04-07T09:50:45.930Z,33.39
2019-04-07T09:53:18.504Z,32.62
2019-04-07T09:56:05.147Z,33.41
2019-04-07T09:58:34.031Z,34.29
2019-04-07T10:01:01.960Z,32.96
2019-04-07T10:03:35.475Z,31.32
2019-04-07T10:06:12.218Z,29.24
2019-04-07T10:08:43.285Z,27.66
2019-04-07T10:11:26.306Z,26.66
2019-04-07T10:13:55.507Z,28.84
2019-04-07T10:16:38.330Z,29.64
2019-04-07T10:19:21.535Z,29.29
2019-04-07T10:21:49.754Z,29.81
2019-04-07T10:24:26.591Z,31.01
2019-04-07T10:26:55.203Z,30.25
2019-04-07T10:29:23.345Z,29.54
2019-04-07T10:31:57.632Z,27.20
2019-04-07T10:34:42.852Z,28.28
2019-04-07T10:37:17.100Z,28.27
2019-04-07T10:39:45.051Z,27.86
2019-04-07T10:42:22.242Z,25.64
2019-04-07T10:44:59.256Z,25.69
2019-04-07T10:47:34.713Z,27.54
2019-04-07T10:50:08.528Z,28.28
2019-04-07T10:52:37.641Z,27.37
2019-04-07T10:55:07.394Z,26.53
2019-04-07T10:57:41.446Z,27.34
2019-04-07T11:00:13.424Z,27.15
2019-04-07T11:02:57.640Z,30.22
2019-04-07T11:05:28.418Z,30.46
2019-04-07T11:08:02.480Z,29.50
2019-04-07T11:10:37.879Z,30.53
2019-04-07T11:13:15.709Z,28.06
2019-04-07T11:15:47.632Z,28.87
2019-04-07T11:18:21.481Z,29.97
2019-04-07T11:20:55.807Z,30.06
2019-04-07T11:23:25.238Z,31.41
2019-04-07T11:26:03.532Z,32.27
2019-04-07T11:28:37.911Z,32.64
2019-04-07T11:31:09.203Z,33.77
2019-04-07T11:33:37.259Z,32.64
2019-04-07T11:36:21.284Z,32.47
2019-04-07T11:38:48.430Z,32.08
2019-04-07T11:41:24.137Z,31.43
2019-04-07T11:43:50.066Z,32.33
2019-04-07T11:46:18.768Z,32.21
2019-04-07T11:48:52.518Z,32.11
2019-04-07T11:51:24.258Z,31.04
2019-04-07T11:53:52.317Z,33.17
2019-04-07T11:56:23.940Z,32.79
2019-04-07T11:59:08.803Z,32.87
2019-04-07T12:01:41.931Z,32.89
2019-04-07T12:04:19.732Z,31.34
2019-04-07T12:06:50.300Z,32.34
2019-04-07T12:09:20.680Z,31.20
2019-04-07T12:12:05.893Z,31.29
2019-04-07T12:14:52.487Z,31.41
2019-04-07T12:17:23.480Z,31.54
2019-04-07T12:20:00.949Z,31.03
2019-04-07T12:22:34.977Z,32.56
2019-04-07T12:25:12.477Z,33.94
2019-04-07T12:27:50.519Z,33.86
2019-04-07T12:30:25.153Z,33.67
2019-04-07T12:32:54.097Z,33.91
2019-04-07T12:35:26.199Z,33.20
2019-04-07T12:37:54.230Z,32.79
2019-04-07T12:40:28.931Z,32.90
2019-04-07T12:43:02.535Z,32.91
2019-04-07T12:45:30.638Z,33.33
2019-04-07T12:48:14.716Z,33.32
2019-04-07T12:50:58.864Z,32.88
2019-04-07T12:53:35.921Z,32.14
2019-04-07T12:56:02.727Z,32.10
2019-04-07T12:58:48.249Z,31.40
2019-04-07T13:01:34.739Z,31.94
2019-04-07T13:04:03.531Z,31.11
2019-04-07T13:06:32.001Z,30.77
2019-04-07T13:09:09.249Z,33.13
2019-04-07T13:11:53.639Z,32.27
2019-04-07T13:14:25.677Z,32.90
2019-04-07T13:17:00.651Z,33.15
2019-04-07T13:19:48.156Z,32.56
2019-04-07T13:22:34.417Z,32.77
2019-04-07T13:25:21.438Z,32.88
2019-04-07T13:27:48.646Z,32.05
2019-04-07T13:30:17.109Z,32.10
2019-04-07T13:32:53.027Z,32.20
2019-04-07T13:35:27.096Z,32.33
2019-04-07T13:37:55.510Z,32.43
2019-04-07T13:40:29.557Z,33.19
2019-04-07T13:43:02.902Z,33.38
2019-04-07T13:45:31.226Z,32.91
2019-04-07T13:48:11.578Z,33.35
2019-04-07T13:50:49.544Z,33.33
2019-04-07T13:53:34.089Z,35.18
2019-04-07T13:56:08.296Z,35.45
2019-04-07T13:58:38.995Z,35.53
2019-04-07T14:01:12.796Z,35.87
2019-04-07T14:03:56.520Z,35.89
2019-04-07T14:06:29.536Z,35.87
2019-04-07T14:09:00.286Z,36.50
2019-04-07T14:11:30.687Z,38.76
2019-04-07T14:13:59.180Z,38.23
2019-04-07T14:16:43.589Z,39.25
2019-04-07T14:19:12.369Z,41.15
2019-04-07T14:21:44.026Z,40.41
2019-04-07T14:24:28.190Z,39.70
2019-04-07T14:26:59.231Z,39.90
2019-04-07T14:29:36.941Z,40.96
2019-04-07T14:32:05.653Z,39.59
2019-04-07T14:34:42.617Z,39.78
2019-04-07T14:37:10.861Z,39.02
2019-04-07T14:39:53.747Z,40.29
2019-04-07T14:42:24.262Z,38.53
2019-04-07T14:44:52.272Z,38.12
2019-04-07T14:47:30.387Z,38.32
2019-04-07T14:50:05.138Z,39.02
2019-04-07T14:52:33.186Z,39.00
2019-04-07T14:55:04.885Z,39.60
2019-04-07T14:57:35.147Z,39.57
2019-04-07T15:00:08.993Z,40.18
2019-04-07T15:02:36.520Z,40.31
2019-04-07T15:05:09.267Z,39.77
2019-04-07T15:07:37.469Z,39.29
2019-04-07T15:10:11.856Z,39.73
2019-04-07T15:12:46.876Z,40.12
2019-04-07T15:15:13.926Z,40.41
2019-04-07T15:17:40.463Z,40.01
2019-04-07T15:20:11.643Z,40.24
2019-04-07T15:22:37.845Z,39.78
2019-04-07T15:25:07.213Z,40.67
2019-04-07T15:27:32.649Z,40.28
2019-04-07T15:29:58.899Z,40.28
2019-04-07T15:32:28.511Z,40.99
2019-04-07T15:34:53.541Z,41.20
2019-04-07T15:37:23.554Z,42.18
2019-04-07T15:39:47.621Z,42.54
2019-04-07T15:42:24.992Z,42.27
2019-04-07T15:44:42.740Z,43.62
2019-04-07T15:47:09.629Z,41.96
2019-04-07T15:49:36.348Z,41.19
2019-04-07T15:52:06.731Z,44.05
2019-04-07T15:54:30.559Z,44.03
2019-04-07T15:56:58.740Z,43.37
2019-04-07T15:59:24.904Z,44.48
2019-04-07T16:01:51.020Z,45.33
2019-04-07T16:04:17.125Z,45.63
2019-04-07T16:06:47.003Z,44.97
2019-04-07T16:09:29.104Z,44.30
2019-04-07T16:11:40.391Z,41.59
2019-04-07T16:14:12.500Z,39.43
2019-04-07T16:16:34.418Z,40.01
2019-04-07T16:19:01.381Z,41.26
2019-04-07T16:21:28.959Z,40.16
2019-04-07T16:23:57.996Z,40.12
2019-04-07T16:26:24.135Z,39.98
2019-04-07T16:28:50.166Z,41.18
2019-04-07T16:31:16.745Z,41.48
2019-04-07T16:33:43.028Z,41.73
2019-04-07T16:36:09.091Z,41.44
2019-04-07T16:38:35.352Z,42.59
2019-04-07T16:41:01.604Z,41.43
2019-04-07T16:43:30.624Z,42.55
2019-04-07T16:45:55.807Z,43.66
2019-04-07T16:48:22.852Z,44.62
2019-04-07T16:50:53.314Z,45.45
2019-04-07T16:53:16.875Z,44.82
2019-04-07T16:55:47.428Z,44.24
2019-04-07T16:58:11.682Z,45.87
2019-04-07T17:00:38.362Z,47.39
2019-04-07T17:03:07.404Z,47.76
2019-04-07T17:05:33.702Z,45.82
2019-04-07T17:07:59.801Z,47.47
2019-04-07T17:10:28.762Z,47.79
2019-04-07T17:12:54.559Z,48.28
2019-04-07T17:15:21.184Z,49.19
2019-04-07T17:17:51.227Z,49.63
2019-04-07T17:20:15.182Z,48.74
2019-04-07T17:22:43.470Z,48.83
2019-04-07T17:25:10.971Z,50.42
2019-04-07T17:27:40.919Z,49.48
2019-04-07T17:30:14.932Z,50.32
2019-04-07T17:32:40.979Z,50.59
2019-04-07T17:35:12.590Z,50.01
2019-04-07T17:37:39.449Z,51.04
2019-04-07T17:40:11.213Z,51.77
2019-04-07T17:42:36.509Z,51.64
2019-04-07T17:45:20.356Z,51.80
2019-04-07T17:47:48.706Z,52.32
2019-04-07T17:50:20.035Z,52.59
2019-04-07T17:53:04.232Z,52.11
2019-04-07T17:55:50.605Z,53.02
2019-04-07T17:58:36.773Z,52.78
2019-04-07T18:01:23.223Z,54.02
2019-04-07T18:03:56.306Z,54.73
2019-04-07T18:06:24.318Z,54.68
2019-04-07T18:09:12.685Z,54.51
2019-04-07T18:11:42.744Z,54.80
2019-04-07T18:14:11.519Z,55.22
2019-04-07T18:16:39.661Z,54.86
2019-04-07T18:19:10.837Z,56.13
2019-04-07T18:21:52.160Z,55.86
2019-04-07T18:24:20.577Z,56.50
2019-04-07T18:27:04.790Z,56.24
2019-04-07T18:29:36.688Z,56.46
2019-04-07T18:32:22.683Z,56.18
2019-04-07T18:34:52.848Z,57.27
2019-04-07T18:37:40.036Z,56.37
2019-04-07T18:40:27.272Z,56.66
2019-04-07T18:42:57.743Z,56.98
2019-04-07T18:45:46.528Z,57.39
2019-04-07T18:48:20.278Z,57.60
2019-04-07T18:51:01.089Z,58.46
2019-04-07T18:53:38.630Z,58.22
2019-04-07T18:56:22.501Z,59.11
2019-04-07T18:58:53.405Z,59.27
2019-04-07T19:01:24.416Z,59.36
2019-04-07T19:03:53.616Z,59.68
2019-04-07T19:06:42.107Z,60.39
2019-04-07T19:09:27.564Z,59.54
2019-04-07T19:12:04.459Z,59.62
2019-04-07T19:14:42.397Z,60.20
2019-04-07T19:17:05.768Z,59.85
2019-04-07T19:19:46.245Z,59.46
2019-04-07T19:22:23.136Z,59.51
2019-04-07T19:24:57.923Z,60.42
2019-04-07T19:27:30.179Z,60.03
2019-04-07T19:30:01.765Z,59.88
2019-04-07T19:32:33.352Z,60.02
2019-04-07T19:35:18.571Z,60.15
2019-04-07T19:38:04.864Z,59.73
2019-04-07T19:40:38.070Z,59.92
2019-04-07T19:43:06.206Z,60.69
2019-04-07T19:45:37.108Z,60.78
2019-04-07T19:48:11.555Z,60.31
2019-04-07T19:50:55.639Z,60.14
2019-04-07T19:53:29.919Z,59.98
2019-04-07T19:55:58.173Z,60.10
2019-04-07T19:58:26.479Z,59.94
2019-04-07T20:00:56.539Z,60.14
2019-04-07T20:03:28.434Z,60.80
2019-04-07T20:06:12.966Z,60.56
2019-04-07T20:08:55.856Z,60.84
2019-04-07T20:11:27.742Z,61.55
2019-04-07T20:14:13.922Z,61.55
2019-04-07T20:16:51.290Z,61.87
2019-04-07T20:19:39.465Z,60.88
2019-04-07T20:22:14.200Z,62.04
2019-04-07T20:24:49.596Z,62.24
2019-04-07T20:27:36.154Z,62.12
2019-04-07T20:30:06.987Z,62.04
2019-04-07T20:32:37.753Z,61.84
2019-04-07T20:35:11.537Z,62.47
2019-04-07T20:37:46.641Z,62.16
2019-04-07T20:40:36.269Z,63.03
2019-04-07T20:43:05.565Z,63.59
2019-04-07T20:45:50.067Z,63.29
2019-04-07T20:48:36.795Z,62.84
2019-04-07T20:51:07.250Z,63.16
2019-04-07T20:53:39.562Z,63.37
2019-04-07T20:56:11.591Z,63.61
2019-04-07T20:58:52.224Z,63.61
2019-04-07T21:01:17.513Z,64.44
2019-04-07T21:03:50.353Z,64.48
2019-04-07T21:06:29.938Z,64.15
2019-04-07T21:09:08.857Z,64.60
2019-04-07T21:11:53.652Z,64.89
2019-04-07T21:14:22.839Z,65.08
2019-04-07T21:16:51.044Z,65.87
2019-04-07T21:19:19.004Z,65.99
2019-04-07T21:22:03.464Z,65.57
2019-04-07T21:24:31.586Z,65.22
2019-04-07T21:27:14.520Z,65.66
2019-04-07T21:29:46.621Z,66.12
2019-04-07T21:32:23.630Z,66.17
2019-04-07T21:35:03.275Z,66.54
2019-04-07T21:37:33.834Z,65.84
2019-04-07T21:40:18.709Z,65.83
2019-04-07T21:42:59.385Z,65.74
2019-04-07T21:45:41.100Z,65.90
2019-04-07T21:48:12.030Z,65.14
2019-04-07T21:50:42.072Z,66.41
2019-04-07T21:53:28.219Z,67.57
2019-04-07T21:55:54.272Z,68.70
2019-04-07T21:58:31.516Z,69.11
2019-04-07T22:01:02.838Z,69.15
2019-04-07T22:03:39.446Z,69.19
2019-04-07T22:06:07.501Z,69.16
2019-04-07T22:08:44.281Z,69.11
2019-04-07T22:11:10.102Z,68.78
2019-04-07T22:13:36.812Z,68.89
2019-04-07T22:16:05.807Z,69.01
2019-04-07T22:18:32.435Z,69.13
2019-04-07T22:20:59.191Z,69.06
2019-04-07T22:23:25.431Z,68.57
2019-04-07T22:25:54.019Z,69.67
2019-04-07T22:28:20.652Z,68.86
2019-04-07T22:30:48.733Z,69.47
2019-04-07T22:33:15.827Z,69.60
2019-04-07T22:35:44.053Z,69.70
2019-04-07T22:38:09.885Z,69.23
2019-04-07T22:40:37.971Z,68.67
2019-04-07T22:43:07.127Z,68.39
2019-04-07T22:45:33.251Z,68.42
2019-04-07T22:47:59.310Z,68.20
2019-04-07T22:50:27.272Z,68.01
2019-04-07T22:52:55.200Z,67.83
2019-04-07T22:55:21.418Z,68.38
2019-04-07T22:57:48.342Z,67.85
2019-04-07T23:00:17.454Z,68.15
2019-04-07T23:02:44.435Z,68.40
2019-04-07T23:05:11.434Z,68.49
2019-04-07T23:07:37.557Z,68.72
2019-04-07T23:10:04.638Z,68.82
2019-04-07T23:12:30.946Z,69.40
2019-04-07T23:14:56.981Z,70.19
2019-04-07T23:17:23.839Z,70.24
2019-04-07T23:19:50.439Z,70.21
2019-04-07T23:22:18.120Z,70.50
2019-04-07T23:24:45.253Z,69.86
2019-04-07T23:27:12.368Z,70.76
2019-04-07T23:29:38.751Z,70.89
2019-04-07T23:32:04.904Z,70.67
2019-04-07T23:34:31.237Z,70.85
2019-04-07T23:36:57.568Z,71.01
2019-04-07T23:39:25.085Z,70.88
2019-04-07T23:41:51.268Z,70.85
2019-04-07T23:44:17.443Z,70.68
2019-04-07T23:46:43.594Z,70.37
2019-04-07T23:49:09.983Z,70.27
2019-04-07T23:51:36.065Z,71.03
2019-04-07T23:54:11.939Z,71.69
2019-04-07T23:56:41.361Z,71.63
2019-04-07T23:59:08.399Z,72.24
